Time;durP1;ratioP1;P1;durP2;ratioP2;P2;SDS_P1;SDS_P2;PMS_P1;PMS_P2;Temp;Humidity;BMP_temperature;BMP_pressure;BME280_temperature;BME280_humidity;BME280_pressure;Samples;Min_cycle;Max_cycle;Signal;HPM_P1;HPM_P2
2022/11/03 00:01:00;;;;;;;4.87;2.43;;;12.20;98.20;;;;;;4977232;28;20481;-83
2022/11/03 00:03:27;;;;;;;8.87;3.73;;;12.20;98.40;;;;;;4966919;28;20522;-83
2022/11/03 00:06:06;;;;;;;6.53;2.53;;;12.10;98.50;;;;;;4980034;28;21358;-84
2022/11/03 00:08:34;;;;;;;7.53;2.63;;;12.10;98.70;;;;;;4977741;28;20698;-82
2022/11/03 00:11:05;;;;;;;8.17;3.07;;;12.10;98.80;;;;;;4976361;28;20585;-84
2022/11/03 00:13:33;;;;;;;11.03;3.47;;;12.20;98.90;;;;;;4977637;28;20505;-84
2022/11/03 00:15:59;;;;;;;5.10;2.60;;;12.20;98.90;;;;;;4978834;28;20498;-83
2022/11/03 00:18:26;;;;;;;4.83;2.77;;;12.10;99.00;;;;;;4960456;28;20494;-83
2022/11/03 00:20:56;;;;;;;6.30;2.93;;;12.10;99.20;;;;;;4977291;28;21022;-83
2022/11/03 00:23:28;;;;;;;7.20;3.07;;;12.00;99.10;;;;;;4962555;28;20471;-84
2022/11/03 00:26:01;;;;;;;7.57;2.97;;;12.10;99.50;;;;;;4977190;28;20586;-82
2022/11/03 00:28:31;;;;;;;5.30;2.40;;;12.10;99.50;;;;;;4974203;28;20549;-83
2022/11/03 00:30:58;;;;;;;4.13;2.50;;;12.20;99.30;;;;;;4975498;28;20476;-83
2022/11/03 00:33:26;;;;;;;9.37;3.20;;;12.20;99.40;;;;;;4961727;28;20549;-82
2022/11/03 00:35:57;;;;;;;7.77;3.70;;;12.10;99.50;;;;;;4975881;28;20457;-83
2022/11/03 00:38:24;;;;;;;5.73;2.47;;;12.10;99.80;;;;;;4976168;28;22111;-83
2022/11/03 00:41:01;;;;;;;9.53;2.63;;;12.10;99.80;;;;;;4976785;28;20491;-82
2022/11/03 00:43:29;;;;;;;4.63;2.43;;;12.20;99.80;;;;;;4974524;28;20546;-81
2022/11/03 00:45:56;;;;;;;3.40;2.30;;;12.20;99.80;;;;;;4974652;28;20556;-81
2022/11/03 00:48:30;;;;;;;5.03;2.10;;;12.20;99.90;;;;;;4974949;28;20493;-82
2022/11/03 00:51:06;;;;;;;6.00;2.47;;;12.20;99.90;;;;;;4973187;28;20486;-83
2022/11/03 00:53:40;;;;;;;7.00;2.47;;;12.10;99.90;;;;;;4972305;28;20509;-82
2022/11/03 00:56:09;;;;;;;6.40;2.77;;;12.20;99.90;;;;;;4972147;28;20459;-82
2022/11/03 00:58:35;;;;;;;3.47;2.00;;;12.20;99.90;;;;;;4960232;28;20484;-82
2022/11/03 01:01:11;;;;;;;4.60;2.47;;;12.20;99.90;;;;;;4955210;28;20581;-83
2022/11/03 01:03:40;;;;;;;9.93;2.97;;;12.20;99.90;;;;;;4969034;28;20496;-83
2022/11/03 01:08:54;;;;;;;4.33;2.60;;;12.20;99.90;;;;;;4972603;28;22132;-83
2022/11/03 01:14:14;;;;;;;12.37;3.30;;;12.30;99.90;;;;;;4972369;28;21035;-82
2022/11/03 01:16:41;;;;;;;7.00;3.00;;;12.20;99.90;;;;;;4972885;28;20498;-83
2022/11/03 01:19:08;;;;;;;5.97;2.50;;;12.30;99.90;;;;;;4975481;28;20486;-80
2022/11/03 01:21:35;;;;;;;8.00;2.60;;;12.20;99.90;;;;;;4974731;28;20541;-83
2022/11/03 01:24:03;;;;;;;8.97;2.73;;;12.30;99.90;;;;;;4962416;28;20563;-80
2022/11/03 01:26:30;;;;;;;7.67;3.53;;;12.40;99.90;;;;;;4965050;28;20498;-80
2022/11/03 01:28:59;;;;;;;7.60;2.60;;;12.40;99.90;;;;;;4964152;28;20554;-83
2022/11/03 01:31:26;;;;;;;5.90;2.33;;;12.50;99.90;;;;;;4962268;28;20520;-85
2022/11/03 01:33:54;;;;;;;7.73;2.70;;;12.50;99.90;;;;;;4960391;28;20863;-83
2022/11/03 01:36:22;;;;;;;7.77;2.57;;;12.50;99.90;;;;;;4964470;28;20493;-81
2022/11/03 01:38:49;;;;;;;6.77;2.70;;;12.50;99.90;;;;;;4964178;28;20495;-83
2022/11/03 01:41:21;;;;;;;4.07;2.70;;;12.40;99.90;;;;;;4967062;28;20538;-82
2022/11/03 01:44:25;;;;;;;9.80;3.17;;;12.30;99.90;;;;;;4967252;28;20470;-83
2022/11/03 01:47:18;;;;;;;8.17;2.90;;;12.40;99.90;;;;;;4959958;28;20489;-82
2022/11/03 01:50:05;;;;;;;8.60;2.80;;;12.50;99.90;;;;;;4960646;28;20458;-83
2022/11/03 01:52:36;;;;;;;5.70;3.20;;;12.40;99.90;;;;;;4961386;28;20616;-83
2022/11/03 01:55:34;;;;;;;12.10;3.63;;;12.40;99.90;;;;;;4961504;28;20538;-83
2022/11/03 01:58:18;;;;;;;5.50;2.53;;;12.40;99.90;;;;;;4981841;28;20460;-84
2022/11/03 02:00:47;;;;;;;12.97;4.33;;;12.50;99.90;;;;;;4975923;28;20488;-83
2022/11/03 02:03:15;;;;;;;5.23;2.77;;;12.40;99.90;;;;;;4964189;28;20462;-83
2022/11/03 02:05:45;;;;;;;4.63;2.50;;;12.40;99.90;;;;;;4963402;28;20455;-81
2022/11/03 02:08:27;;;;;;;9.43;3.47;;;12.50;99.90;;;;;;4957778;28;20522;-82
2022/11/03 02:10:56;;;;;;;4.87;2.63;;;12.40;99.90;;;;;;4972620;28;20545;-81
2022/11/03 02:13:25;;;;;;;5.80;2.63;;;12.40;99.90;;;;;;4965166;28;20572;-82
2022/11/03 02:15:58;;;;;;;6.13;3.17;;;12.30;99.90;;;;;;4964090;28;20447;-82
2022/11/03 02:18:32;;;;;;;7.20;2.53;;;12.30;99.90;;;;;;4964935;28;20472;-83
2022/11/03 02:21:14;;;;;;;7.83;4.03;;;12.30;99.90;;;;;;4962407;28;20564;-84
2022/11/03 02:23:56;;;;;;;4.07;2.77;;;12.30;99.90;;;;;;4963810;28;20464;-83
2022/11/03 02:26:22;;;;;;;5.90;2.50;;;12.30;99.90;;;;;;4965420;28;20493;-82
2022/11/03 02:28:49;;;;;;;5.23;2.80;;;12.30;99.90;;;;;;4978955;28;20551;-82
2022/11/03 02:31:37;;;;;;;7.40;3.13;;;12.40;99.90;;;;;;4956618;28;20477;-82
2022/11/03 02:34:15;;;;;;;4.20;2.13;;;12.30;99.90;;;;;;4976426;28;20524;-82
2022/11/03 02:36:57;;;;;;;5.23;2.17;;;12.30;99.90;;;;;;4975275;28;20515;-81
2022/11/03 02:39:42;;;;;;;5.00;2.47;;;12.30;99.90;;;;;;4975043;28;20458;-83
2022/11/03 02:42:11;;;;;;;3.93;2.37;;;12.20;99.90;;;;;;4975521;28;20533;-83
2022/11/03 02:44:38;;;;;;;5.03;2.90;;;12.00;99.90;;;;;;4961394;28;20471;-82
2022/11/03 02:47:10;;;;;;;8.17;2.67;;;12.00;99.90;;;;;;4978199;28;20507;-83
2022/11/03 02:49:48;;;;;;;4.37;2.20;;;12.10;99.90;;;;;;4962761;28;20457;-82
2022/11/03 02:52:36;;;;;;;5.70;2.23;;;12.20;99.90;;;;;;4977211;28;20450;-82
2022/11/03 02:55:19;;;;;;;5.93;2.37;;;12.50;99.90;;;;;;4978454;28;21846;-84
2022/11/03 02:57:56;;;;;;;5.20;2.50;;;12.60;99.90;;;;;;4976908;28;20976;-83
2022/11/03 03:00:23;;;;;;;8.03;3.47;;;12.50;99.90;;;;;;4980539;28;20512;-83
2022/11/03 03:03:05;;;;;;;9.77;2.87;;;12.40;99.90;;;;;;4986349;28;20462;-82
2022/11/03 03:05:34;;;;;;;4.90;2.70;;;12.40;99.90;;;;;;4974801;28;21324;-82
2022/11/03 03:08:06;;;;;;;5.30;2.37;;;12.40;99.90;;;;;;4972783;28;21192;-82
2022/11/03 03:10:38;;;;;;;8.97;3.10;;;12.40;99.90;;;;;;4975116;28;20561;-82
2022/11/03 03:13:06;;;;;;;7.20;2.80;;;12.30;99.90;;;;;;4976933;28;21607;-82
2022/11/03 03:15:57;;;;;;;7.47;2.97;;;12.40;99.90;;;;;;4973535;28;21172;-82
2022/11/03 03:18:34;;;;;;;6.43;2.83;;;12.40;99.90;;;;;;4991322;28;20503;-82
2022/11/03 03:21:10;;;;;;;7.03;2.43;;;12.30;99.90;;;;;;4984138;28;21642;-82
2022/11/03 03:23:46;;;;;;;10.03;2.90;;;12.30;99.90;;;;;;4958714;28;20611;-82
2022/11/03 03:26:28;;;;;;;4.87;2.13;;;12.30;99.90;;;;;;4974825;28;20501;-82
2022/11/03 03:28:58;;;;;;;7.53;2.80;;;12.40;99.90;;;;;;4976545;28;20508;-82
2022/11/03 03:31:28;;;;;;;7.07;3.27;;;12.30;99.90;;;;;;4960099;28;21050;-83
2022/11/03 03:33:57;;;;;;;5.03;2.10;;;12.30;99.90;;;;;;4982783;28;20448;-83
2022/11/03 03:36:30;;;;;;;4.50;2.43;;;12.50;99.90;;;;;;4983213;28;20465;-83
2022/11/03 03:39:03;;;;;;;3.10;2.37;;;12.30;99.90;;;;;;4981437;28;20497;-83
2022/11/03 03:41:31;;;;;;;7.47;2.90;;;12.40;99.90;;;;;;4967241;28;20494;-83
2022/11/03 03:44:01;;;;;;;9.53;3.03;;;12.40;99.90;;;;;;4964512;28;20464;-81
2022/11/03 03:46:36;;;;;;;4.13;2.73;;;12.50;99.90;;;;;;4966910;28;20482;-83
2022/11/03 03:49:03;;;;;;;8.27;2.53;;;12.50;99.90;;;;;;4964675;28;20563;-83
2022/11/03 03:51:32;;;;;;;6.83;3.03;;;12.40;99.90;;;;;;4981540;28;20566;-83
2022/11/03 03:53:58;;;;;;;6.20;2.93;;;12.40;99.90;;;;;;4975572;28;20455;-83
2022/11/03 03:56:31;;;;;;;8.20;2.60;;;12.40;99.90;;;;;;4978445;28;20502;-82
2022/11/03 03:58:58;;;;;;;7.33;2.77;;;12.40;99.90;;;;;;4981935;28;20617;-83
2022/11/03 04:01:25;;;;;;;6.80;2.53;;;12.30;99.90;;;;;;4985671;28;20515;-83
2022/11/03 04:03:51;;;;;;;6.23;2.63;;;12.30;99.90;;;;;;4985707;28;20451;-82
2022/11/03 04:06:18;;;;;;;6.50;2.03;;;12.20;99.90;;;;;;4985313;28;20462;-81
2022/11/03 04:08:44;;;;;;;7.77;2.57;;;12.20;99.90;;;;;;4986882;28;21174;-81
2022/11/03 04:22:15;;;;;;;4.30;2.03;;;12.30;99.90;;;;;;5001608;28;20473;-82
2022/11/03 04:24:46;;;;;;;16.70;3.50;;;12.30;99.90;;;;;;4982173;28;20450;-81
2022/11/03 04:27:28;;;;;;;3.60;1.80;;;12.30;99.90;;;;;;4965109;28;21071;-81
2022/11/03 04:30:16;;;;;;;8.33;3.20;;;12.20;99.90;;;;;;4956569;28;20455;-81
2022/11/03 04:32:45;;;;;;;5.70;2.67;;;12.20;99.90;;;;;;4959629;28;20470;-82
2022/11/03 04:35:16;;;;;;;9.67;2.47;;;12.10;99.90;;;;;;4960426;28;20444;-82
2022/11/03 04:37:46;;;;;;;3.40;2.30;;;12.20;99.90;;;;;;4971720;28;20459;-81
2022/11/03 04:40:15;;;;;;;5.40;2.27;;;12.20;99.90;;;;;;4962386;28;20552;-82
2022/11/03 04:42:43;;;;;;;3.63;2.27;;;12.10;99.90;;;;;;4960995;28;20471;-83
2022/11/03 04:45:29;;;;;;;8.13;1.80;;;12.20;99.90;;;;;;4974032;28;20455;-82
2022/11/03 04:47:58;;;;;;;6.53;2.93;;;12.20;99.90;;;;;;4969596;28;21341;-82
2022/11/03 04:50:25;;;;;;;7.77;2.43;;;12.30;99.90;;;;;;4958526;28;20467;-82
2022/11/03 04:52:57;;;;;;;4.00;2.10;;;12.20;99.90;;;;;;4958166;28;20515;-81
2022/11/03 04:55:25;;;;;;;5.00;2.07;;;12.30;99.90;;;;;;4973761;28;20519;-82
2022/11/03 04:57:57;;;;;;;14.17;3.60;;;12.20;99.90;;;;;;4961709;28;20443;-82
2022/11/03 05:00:23;;;;;;;6.53;2.70;;;12.20;99.90;;;;;;4980079;28;20486;-82
2022/11/03 05:02:51;;;;;;;4.87;2.53;;;12.40;99.90;;;;;;4964129;28;20464;-81
2022/11/03 05:05:22;;;;;;;8.37;2.60;;;12.50;99.90;;;;;;4963266;28;20500;-82
2022/11/03 05:07:52;;;;;;;6.20;2.67;;;12.50;99.90;;;;;;4958841;28;20488;-82
2022/11/03 05:10:27;;;;;;;4.17;2.30;;;12.50;99.90;;;;;;4955932;28;21259;-81
2022/11/03 05:12:54;;;;;;;5.60;2.57;;;12.50;99.90;;;;;;4960397;28;21177;-81
2022/11/03 05:15:33;;;;;;;7.83;3.13;;;12.40;99.90;;;;;;4958015;28;20536;-82
2022/11/03 05:18:02;;;;;;;8.20;2.87;;;12.40;99.90;;;;;;4969114;28;20498;-81
2022/11/03 05:20:52;;;;;;;6.83;3.40;;;12.40;99.90;;;;;;4956886;28;20552;-82
2022/11/03 05:23:21;;;;;;;3.50;1.90;;;12.30;99.90;;;;;;4955847;28;20494;-82
2022/11/03 05:25:58;;;;;;;4.90;2.90;;;12.40;99.90;;;;;;4959617;28;21014;-82
2022/11/03 05:28:26;;;;;;;6.03;2.20;;;12.50;99.90;;;;;;4975214;28;20489;-82
2022/11/03 05:30:54;;;;;;;12.70;3.33;;;12.50;99.90;;;;;;4958829;28;20475;-82
2022/11/03 05:33:29;;;;;;;4.63;2.17;;;12.60;99.90;;;;;;4956014;28;20474;-81
2022/11/03 05:35:59;;;;;;;5.03;2.40;;;12.60;99.90;;;;;;4959582;28;20455;-82
2022/11/03 05:38:31;;;;;;;8.40;2.87;;;12.60;99.90;;;;;;4959163;28;20459;-81
2022/11/03 05:40:58;;;;;;;4.57;2.23;;;12.60;99.90;;;;;;4977948;28;20506;-81
2022/11/03 05:43:27;;;;;;;4.63;2.33;;;12.60;99.90;;;;;;4962401;28;20463;-82
2022/11/03 05:46:00;;;;;;;6.53;2.53;;;12.60;99.90;;;;;;4965190;28;20466;-82
2022/11/03 05:48:33;;;;;;;3.70;2.30;;;12.60;99.90;;;;;;4963073;28;21000;-80
2022/11/03 05:51:11;;;;;;;5.30;2.20;;;12.70;99.90;;;;;;4962587;28;20521;-82
2022/11/03 05:53:43;;;;;;;3.47;2.10;;;12.70;99.90;;;;;;4975199;28;20454;-80
2022/11/03 05:56:16;;;;;;;9.30;2.27;;;12.70;99.90;;;;;;4982847;28;20493;-80
2022/11/03 05:58:45;;;;;;;12.53;2.57;;;12.70;99.90;;;;;;4991457;28;20474;-80
2022/11/03 06:01:23;;;;;;;3.07;1.73;;;12.60;99.90;;;;;;4969626;28;20479;-81
2022/11/03 06:03:50;;;;;;;8.63;2.60;;;12.60;99.90;;;;;;4967147;28;20523;-82
2022/11/03 06:06:35;;;;;;;5.13;2.30;;;12.70;99.90;;;;;;4982071;28;20518;-81
2022/11/03 06:09:09;;;;;;;2.97;1.57;;;12.70;99.90;;;;;;4965647;28;20841;-82
2022/11/03 06:11:36;;;;;;;6.20;1.97;;;12.60;99.90;;;;;;4966301;28;20487;-81
2022/11/03 06:14:19;;;;;;;8.20;2.60;;;12.60;99.90;;;;;;4979115;28;20547;-82
2022/11/03 06:17:05;;;;;;;6.30;2.23;;;12.50;99.90;;;;;;4986225;28;20861;-81
2022/11/03 06:19:41;;;;;;;6.63;2.10;;;12.60;99.90;;;;;;4974485;28;20619;-83
2022/11/03 06:22:27;;;;;;;6.60;4.93;;;12.60;99.90;;;;;;4967069;28;20463;-83
2022/11/03 06:25:26;;;;;;;3.77;2.10;;;12.70;99.90;;;;;;4980180;28;20447;-83
2022/11/03 06:28:01;;;;;;;5.33;1.90;;;12.70;99.90;;;;;;4966999;28;20494;-81
2022/11/03 06:30:32;;;;;;;6.33;2.50;;;12.70;99.90;;;;;;4984068;28;20544;-82
2022/11/03 06:33:13;;;;;;;6.80;1.90;;;12.70;99.90;;;;;;4990667;28;20825;-82
2022/11/03 06:35:40;;;;;;;6.00;2.47;;;12.60;99.90;;;;;;4976521;28;20469;-81
2022/11/03 06:38:24;;;;;;;8.70;2.63;;;12.50;99.90;;;;;;4976075;28;20465;-81
2022/11/03 06:40:52;;;;;;;8.37;3.27;;;12.40;99.90;;;;;;4976348;28;20532;-81
2022/11/03 06:43:35;;;;;;;4.13;2.33;;;12.50;99.90;;;;;;4975860;28;20453;-82
2022/11/03 06:46:14;;;;;;;7.10;2.97;;;12.40;99.90;;;;;;4975666;28;20453;-82
2022/11/03 06:48:40;;;;;;;4.73;2.20;;;12.50;99.90;;;;;;4976977;28;20531;-81
2022/11/03 06:51:17;;;;;;;9.43;2.87;;;12.50;99.90;;;;;;4991481;28;20504;-82
2022/11/03 06:53:44;;;;;;;6.47;2.33;;;12.50;99.90;;;;;;4978221;28;20541;-81
2022/11/03 06:56:19;;;;;;;4.77;3.40;;;12.60;99.90;;;;;;4982458;28;21342;-83
2022/11/03 06:58:47;;;;;;;5.43;2.47;;;12.60;99.90;;;;;;5001167;28;21138;-80
2022/11/03 07:01:18;;;;;;;3.87;2.33;;;12.60;99.90;;;;;;4983768;28;20484;-82
2022/11/03 07:03:45;;;;;;;6.83;2.30;;;12.50;99.90;;;;;;4977530;28;20486;-83
2022/11/03 07:06:20;;;;;;;3.60;2.10;;;12.50;99.90;;;;;;4968914;28;20451;-82
2022/11/03 07:08:49;;;;;;;6.53;2.40;;;12.60;99.90;;;;;;4959723;28;21995;-82
2022/11/03 07:11:25;;;;;;;7.70;2.70;;;12.50;99.90;;;;;;4957386;28;20520;-82
2022/11/03 07:13:57;;;;;;;13.63;2.93;;;12.50;99.90;;;;;;4973492;28;20771;-82
2022/11/03 07:16:45;;;;;;;4.13;2.30;;;12.50;99.90;;;;;;4981299;28;20445;-82
2022/11/03 07:19:20;;;;;;;6.93;2.53;;;12.50;99.90;;;;;;4974247;28;20458;-83
2022/11/03 07:21:53;;;;;;;6.60;2.83;;;12.40;99.90;;;;;;4960696;28;20494;-80
2022/11/03 07:24:26;;;;;;;4.50;2.67;;;12.40;99.90;;;;;;4957440;28;20485;-81
2022/11/03 07:27:01;;;;;;;5.37;2.33;;;12.50;99.90;;;;;;4967525;28;20543;-82
2022/11/03 07:29:29;;;;;;;9.50;2.40;;;12.50;99.90;;;;;;4963182;28;20520;-82
2022/11/03 07:31:58;;;;;;;5.63;2.10;;;12.60;99.90;;;;;;4975397;28;20500;-82
2022/11/03 07:34:30;;;;;;;6.67;3.93;;;12.70;99.90;;;;;;4977530;28;20502;-83
2022/11/03 07:36:57;;;;;;;6.80;2.63;;;12.80;99.90;;;;;;4975861;28;21186;-82
2022/11/03 07:39:34;;;;;;;3.07;1.60;;;12.80;99.90;;;;;;4976037;28;20466;-83
2022/11/03 07:42:10;;;;;;;6.27;2.90;;;12.80;99.90;;;;;;4965045;28;20494;-81
2022/11/03 07:44:37;;;;;;;6.47;2.33;;;12.80;99.90;;;;;;4977044;28;20987;-82
2022/11/03 07:47:12;;;;;;;5.60;3.07;;;13.10;99.90;;;;;;4983199;28;20458;-81
2022/11/03 07:49:40;;;;;;;10.70;2.63;;;13.10;99.90;;;;;;4962719;28;20524;-83
2022/11/03 07:52:10;;;;;;;8.80;3.00;;;13.20;99.90;;;;;;4964249;28;20464;-83
2022/11/03 07:54:37;;;;;;;9.60;3.57;;;13.40;99.90;;;;;;4977767;28;20461;-82
2022/11/03 07:57:18;;;;;;;8.67;2.77;;;13.50;99.90;;;;;;4976586;28;20459;-82
2022/11/03 07:59:47;;;;;;;5.00;2.50;;;13.60;99.90;;;;;;4980013;28;20480;-83
2022/11/03 08:02:31;;;;;;;6.30;2.77;;;13.60;99.90;;;;;;4961436;28;20528;-82
2022/11/03 08:04:58;;;;;;;7.93;2.40;;;13.70;99.90;;;;;;4962251;28;20465;-81
2022/11/03 08:07:26;;;;;;;7.07;2.47;;;13.60;99.90;;;;;;4977222;28;20463;-84
2022/11/03 08:09:53;;;;;;;6.70;3.07;;;13.60;99.90;;;;;;4980151;28;20465;-82
2022/11/03 08:12:20;;;;;;;7.70;2.80;;;13.60;99.90;;;;;;4984009;28;20466;-81
2022/11/03 08:14:47;;;;;;;12.07;2.80;;;13.70;99.90;;;;;;4983906;28;20458;-82
2022/11/03 08:17:14;;;;;;;7.80;2.20;;;13.70;99.90;;;;;;4969066;28;20451;-83
2022/11/03 08:19:41;;;;;;;9.80;3.30;;;13.90;99.90;;;;;;4980204;28;20485;-83
2022/11/03 08:22:08;;;;;;;9.20;3.23;;;14.00;99.90;;;;;;4980590;28;20480;-83
2022/11/03 08:24:34;;;;;;;5.07;2.90;;;14.00;99.90;;;;;;4971718;28;20451;-82
2022/11/03 08:27:02;;;;;;;4.73;2.60;;;14.00;99.90;;;;;;4966101;28;20502;-82
2022/11/03 08:29:29;;;;;;;5.23;2.50;;;14.00;99.90;;;;;;4962165;28;21095;-82
2022/11/03 08:31:56;;;;;;;7.67;2.57;;;14.10;99.90;;;;;;4960380;28;20579;-81
2022/11/03 08:34:25;;;;;;;4.60;2.23;;;14.10;99.90;;;;;;4962146;28;20487;-82
2022/11/03 08:36:52;;;;;;;5.43;2.17;;;14.00;99.90;;;;;;4964524;28;20474;-83
2022/11/03 08:39:19;;;;;;;7.60;2.57;;;13.90;99.90;;;;;;4979139;28;21033;-82
2022/11/03 08:41:46;;;;;;;5.17;2.90;;;13.90;99.90;;;;;;4966777;28;20471;-83
2022/11/03 08:44:12;;;;;;;4.70;2.20;;;13.90;99.90;;;;;;4963350;28;20461;-81
2022/11/03 08:46:39;;;;;;;2.60;1.63;;;13.90;99.90;;;;;;4978250;28;21118;-81
2022/11/03 08:49:06;;;;;;;4.63;2.10;;;13.90;99.90;;;;;;4962829;28;20986;-81
2022/11/03 08:51:35;;;;;;;5.80;2.30;;;13.90;99.90;;;;;;4981592;28;20483;-82
2022/11/03 08:54:06;;;;;;;6.20;2.23;;;13.90;99.90;;;;;;4965074;28;20440;-81
2022/11/03 08:56:33;;;;;;;4.03;2.30;;;14.10;99.90;;;;;;4965792;28;20459;-82
2022/11/03 08:59:16;;;;;;;7.17;2.37;;;14.20;99.90;;;;;;4963379;28;20463;-82
2022/11/03 09:01:45;;;;;;;7.50;2.23;;;14.20;99.90;;;;;;4968826;28;20493;-83
2022/11/03 09:04:15;;;;;;;5.20;2.50;;;14.00;99.90;;;;;;4966334;28;20552;-81
2022/11/03 09:06:44;;;;;;;6.67;2.60;;;14.20;99.90;;;;;;4978451;28;20486;-82
2022/11/03 09:09:11;;;;;;;4.73;2.50;;;14.10;99.90;;;;;;4968017;28;20590;-84
2022/11/03 09:11:58;;;;;;;6.80;2.40;;;14.20;99.90;;;;;;4968075;28;20554;-82
2022/11/03 09:14:24;;;;;;;4.47;1.90;;;14.30;99.90;;;;;;4964977;28;20466;-82
2022/11/03 09:16:54;;;;;;;5.13;3.03;;;14.40;99.90;;;;;;4967824;28;20468;-82
2022/11/03 09:19:20;;;;;;;5.40;2.20;;;14.30;99.90;;;;;;4965786;28;20538;-83
2022/11/03 09:21:47;;;;;;;4.67;1.80;;;14.40;99.90;;;;;;4963921;28;20595;-83
2022/11/03 09:24:14;;;;;;;4.20;1.93;;;14.40;99.90;;;;;;4965545;28;20467;-83
2022/11/03 09:26:40;;;;;;;2.20;2.00;;;14.30;99.90;;;;;;4964699;28;20469;-81
2022/11/03 09:29:07;;;;;;;4.20;2.17;;;14.30;99.90;;;;;;4967130;28;20525;-82
2022/11/03 09:31:33;;;;;;;3.73;2.10;;;14.40;99.90;;;;;;4968299;28;20951;-83
2022/11/03 09:34:00;;;;;;;3.53;2.27;;;14.40;99.90;;;;;;4972502;28;20513;-81
2022/11/03 09:36:27;;;;;;;3.53;1.63;;;14.30;99.90;;;;;;4973634;28;20550;-82
2022/11/03 09:38:53;;;;;;;3.10;1.93;;;14.10;99.90;;;;;;4970575;28;20493;-83
2022/11/03 09:41:20;;;;;;;7.90;2.60;;;14.20;99.90;;;;;;4971060;28;20494;-83
2022/11/03 09:43:56;;;;;;;4.13;2.17;;;14.10;99.90;;;;;;4972346;28;20650;-83
2022/11/03 09:46:24;;;;;;;3.80;2.30;;;14.10;99.90;;;;;;4962843;28;20467;-82
2022/11/03 09:48:51;;;;;;;5.17;2.70;;;14.10;99.90;;;;;;4961775;28;20496;-84
2022/11/03 09:51:19;;;;;;;7.50;2.70;;;14.10;99.90;;;;;;4953916;28;21804;-82
2022/11/03 09:53:48;;;;;;;8.73;2.20;;;14.10;99.90;;;;;;4972917;28;20501;-82
2022/11/03 09:56:21;;;;;;;7.73;4.73;;;14.30;99.90;;;;;;4960826;28;20455;-83
2022/11/03 09:58:48;;;;;;;4.43;2.83;;;14.40;99.90;;;;;;4982846;28;20487;-82
2022/11/03 10:01:20;;;;;;;3.97;2.23;;;14.40;99.90;;;;;;4959937;28;20459;-82
2022/11/03 10:03:46;;;;;;;11.20;2.27;;;14.40;99.80;;;;;;4957673;28;20461;-82
2022/11/03 10:06:15;;;;;;;7.67;5.33;;;14.20;99.90;;;;;;4963158;28;20537;-83
2022/11/03 10:08:45;;;;;;;4.67;3.17;;;14.40;99.90;;;;;;4978025;28;22030;-82
2022/11/03 10:11:12;;;;;;;6.20;3.47;;;14.30;99.90;;;;;;4965996;28;20487;-83
2022/11/03 10:13:42;;;;;;;7.63;2.50;;;14.20;99.90;;;;;;4961434;28;21274;-81
2022/11/03 10:16:13;;;;;;;4.97;2.13;;;14.20;99.90;;;;;;4958480;28;20471;-80
2022/11/03 10:18:40;;;;;;;9.93;2.30;;;14.30;99.90;;;;;;4955220;28;20490;-81
2022/11/03 10:21:41;;;;;;;5.77;2.53;;;14.30;99.90;;;;;;4955593;28;20492;-82
2022/11/03 10:24:13;;;;;;;4.70;2.40;;;14.30;99.90;;;;;;4947257;28;21824;-83
2022/11/03 10:26:58;;;;;;;5.00;2.43;;;14.30;99.90;;;;;;4958003;28;20496;-81
2022/11/03 10:29:26;;;;;;;5.13;2.40;;;14.40;99.90;;;;;;4949718;28;20488;-81
2022/11/03 10:31:57;;;;;;;3.70;1.93;;;14.40;99.80;;;;;;4966200;28;20471;-80
2022/11/03 10:34:27;;;;;;;6.20;1.63;;;14.60;99.60;;;;;;4960522;28;20536;-82
2022/11/03 10:37:22;;;;;;;6.10;2.17;;;14.60;99.30;;;;;;4956960;28;20486;-82
2022/11/03 10:39:51;;;;;;;3.90;2.03;;;14.60;99.10;;;;;;4955086;28;20486;-80
2022/11/03 10:42:29;;;;;;;3.90;1.97;;;14.60;99.20;;;;;;4942022;28;21992;-81
2022/11/03 10:45:16;;;;;;;3.37;1.60;;;14.50;99.40;;;;;;4962596;28;20504;-83
2022/11/03 10:47:43;;;;;;;3.30;1.60;;;14.60;99.00;;;;;;4955474;28;20482;-83
2022/11/03 10:50:22;;;;;;;4.00;2.17;;;14.50;99.10;;;;;;4960878;28;20486;-81
2022/11/03 10:52:49;;;;;;;3.80;1.47;;;14.50;99.10;;;;;;4957425;28;20450;-82
2022/11/03 10:55:18;;;;;;;2.20;1.47;;;14.60;99.00;;;;;;4946372;28;20478;-82
2022/11/03 10:57:51;;;;;;;4.70;1.50;;;14.70;98.80;;;;;;4963565;28;20460;-83
2022/11/03 11:00:18;;;;;;;5.20;1.70;;;14.60;99.00;;;;;;4943577;28;20570;-82
2022/11/03 11:02:47;;;;;;;4.50;1.97;;;14.50;99.00;;;;;;4944704;28;20483;-83
2022/11/03 11:05:20;;;;;;;3.87;2.37;;;14.60;98.90;;;;;;4961075;28;20463;-83
2022/11/03 11:07:50;;;;;;;5.37;1.60;;;14.70;98.80;;;;;;4959493;28;20455;-82
2022/11/03 11:10:30;;;;;;;6.10;2.30;;;14.60;98.50;;;;;;4959369;28;20498;-82
2022/11/03 11:13:05;;;;;;;8.23;2.20;;;14.80;98.50;;;;;;4960111;28;20458;-81
2022/11/03 11:15:58;;;;;;;5.20;1.70;;;14.80;98.50;;;;;;4955369;28;20486;-82
2022/11/03 11:18:28;;;;;;;4.47;2.27;;;14.80;98.60;;;;;;4960086;28;21969;-83
2022/11/03 11:20:56;;;;;;;3.77;2.00;;;14.90;98.50;;;;;;4961575;28;20537;-82
2022/11/03 11:23:26;;;;;;;4.70;2.07;;;15.00;98.40;;;;;;4956697;28;20460;-83
2022/11/03 11:26:08;;;;;;;5.23;1.90;;;15.10;98.20;;;;;;4957592;28;20518;-81
2022/11/03 11:28:39;;;;;;;7.00;2.07;;;15.00;98.30;;;;;;4962978;28;20491;-82
2022/11/03 11:31:27;;;;;;;2.30;1.63;;;14.80;98.60;;;;;;4962061;28;20523;-83
2022/11/03 11:34:20;;;;;;;3.33;1.90;;;15.00;98.30;;;;;;4946168;28;20465;-82
2022/11/03 11:36:53;;;;;;;4.40;2.30;;;15.10;98.10;;;;;;4945278;28;20596;-82
2022/11/03 11:39:23;;;;;;;4.23;1.57;;;15.10;98.10;;;;;;4961811;28;20470;-82
2022/11/03 11:42:04;;;;;;;8.90;1.83;;;15.00;97.90;;;;;;4966364;28;20600;-82
2022/11/03 11:44:41;;;;;;;3.47;1.80;;;14.90;98.20;;;;;;4961563;28;20486;-81
2022/11/03 11:47:42;;;;;;;4.13;2.03;;;14.90;97.70;;;;;;4963881;28;20470;-83
2022/11/03 11:50:09;;;;;;;5.60;1.87;;;14.80;98.00;;;;;;4965548;28;20517;-82
2022/11/03 11:52:47;;;;;;;10.50;2.17;;;14.80;98.10;;;;;;4962881;28;20532;-83
2022/11/03 11:55:25;;;;;;;6.20;1.83;;;14.90;98.00;;;;;;4961513;28;20550;-82
2022/11/03 11:57:52;;;;;;;3.93;1.63;;;14.90;98.00;;;;;;4968900;28;20490;-82
2022/11/03 12:00:31;;;;;;;2.80;1.80;;;14.70;98.30;;;;;;4950292;28;20479;-81
2022/11/03 12:02:59;;;;;;;4.00;2.03;;;14.60;98.40;;;;;;4965021;28;20459;-82
2022/11/03 12:05:30;;;;;;;6.23;2.57;;;14.70;98.40;;;;;;4961228;28;20537;-83
2022/11/03 12:07:57;;;;;;;2.67;1.80;;;14.60;98.30;;;;;;4965019;28;20586;-82
2022/11/03 12:10:30;;;;;;;4.97;2.40;;;14.60;98.70;;;;;;4964246;28;20953;-82
2022/11/03 12:12:58;;;;;;;4.67;2.33;;;14.60;98.40;;;;;;4965175;28;20506;-83
2022/11/03 12:15:54;;;;;;;5.10;1.60;;;14.70;98.30;;;;;;4967210;28;20563;-81
2022/11/03 12:18:41;;;;;;;4.33;2.13;;;14.60;98.30;;;;;;4967066;28;21281;-82
2022/11/03 12:21:48;;;;;;;2.50;1.63;;;14.80;98.20;;;;;;4965436;28;20487;-83
2022/11/03 12:24:35;;;;;;;4.30;2.00;;;14.60;98.40;;;;;;4967843;28;20509;-81
2022/11/03 12:27:16;;;;;;;2.70;1.90;;;14.50;98.70;;;;;;4980062;28;20567;-82
2022/11/03 12:29:43;;;;;;;7.17;2.30;;;14.80;98.30;;;;;;4976728;28;20489;-81
2022/11/03 12:32:10;;;;;;;3.30;1.90;;;14.70;98.10;;;;;;4978097;28;20549;-82
2022/11/03 12:34:45;;;;;;;9.33;2.53;;;14.90;97.90;;;;;;4962233;28;20468;-82
2022/11/03 12:37:12;;;;;;;3.03;2.10;;;14.70;97.90;;;;;;4971019;28;20474;-81
2022/11/03 12:39:39;;;;;;;5.57;1.70;;;14.60;98.20;;;;;;4960852;28;20495;-82
2022/11/03 12:42:06;;;;;;;5.60;2.40;;;14.60;98.40;;;;;;4991277;28;20462;-82
2022/11/03 12:44:33;;;;;;;6.70;2.23;;;14.70;98.40;;;;;;4991399;28;20438;-81
2022/11/03 12:47:00;;;;;;;5.33;2.17;;;14.80;98.00;;;;;;4968268;28;20459;-82
2022/11/03 12:49:27;;;;;;;4.23;1.80;;;14.90;97.90;;;;;;4989437;28;20556;-82
2022/11/03 12:51:53;;;;;;;2.13;1.77;;;14.70;98.00;;;;;;4964114;28;20509;-81
2022/11/03 12:54:20;;;;;;;3.90;1.70;;;14.70;98.30;;;;;;4973337;28;20467;-82
2022/11/03 12:56:47;;;;;;;5.17;2.67;;;14.80;98.00;;;;;;4962241;28;20466;-82
2022/11/03 12:59:14;;;;;;;3.63;2.33;;;14.80;97.90;;;;;;5041183;23;20490;-81
2022/11/03 13:01:40;;;;;;;2.80;1.83;;;14.70;97.90;;;;;;4939915;28;20520;-81
2022/11/03 13:04:08;;;;;;;3.00;1.70;;;14.50;98.20;;;;;;4942890;28;20581;-81
2022/11/03 13:06:34;;;;;;;5.00;2.57;;;14.70;98.30;;;;;;4922367;28;20491;-80
2022/11/03 13:09:01;;;;;;;4.00;2.00;;;14.70;98.10;;;;;;4944033;28;21040;-82
2022/11/03 13:14:12;;;;;;;5.10;2.00;;;14.70;98.20;;;;;;4943973;28;20452;-82
2022/11/03 13:16:39;;;;;;;7.07;2.60;;;14.80;97.70;;;;;;4930154;28;20478;-82
2022/11/03 13:19:06;;;;;;;5.23;2.33;;;14.80;97.70;;;;;;4946724;28;20499;-81
2022/11/03 13:21:32;;;;;;;3.53;1.90;;;14.80;97.80;;;;;;4945426;28;20519;-81
2022/11/03 13:23:59;;;;;;;2.57;1.87;;;14.70;98.00;;;;;;4944596;28;20575;-82
2022/11/03 13:26:26;;;;;;;2.63;1.77;;;14.70;98.10;;;;;;4926829;28;20994;-82
2022/11/03 13:28:52;;;;;;;3.03;1.60;;;14.70;98.10;;;;;;4946271;28;20496;-82
2022/11/03 13:31:19;;;;;;;2.73;1.70;;;14.90;97.70;;;;;;4946769;28;22176;-83